sensor_id;sensor_type;location;lat;lon;timestamp;P1;durP1;ratioP1;P2;durP2;ratioP2
1026;SDS011;502;48.746;9.214;2022-11-20T00:00:52;5.30;;;4.80;;
1026;SDS011;502;48.746;9.214;2022-11-20T00:03:37;5.10;;;4.50;;
1026;SDS011;502;48.746;9.214;2022-11-20T00:06:25;4.90;;;4.30;;
1026;SDS011;502;48.746;9.214;2022-11-20T00:09:10;5.30;;;4.37;;
1026;SDS011;502;48.746;9.214;2022-11-20T00:11:55;5.37;;;4.57;;
1026;SDS011;502;48.746;9.214;2022-11-20T00:14:41;5.37;;;4.30;;
1026;SDS011;502;48.746;9.214;2022-11-20T00:17:26;5.40;;;4.27;;
1026;SDS011;502;48.746;9.214;2022-11-20T00:20:12;5.97;;;5.07;;
1026;SDS011;502;48.746;9.214;2022-11-20T00:22:58;5.40;;;4.60;;
1026;SDS011;502;48.746;9.214;2022-11-20T00:25:43;5.40;;;4.63;;
1026;SDS011;502;48.746;9.214;2022-11-20T00:28:29;5.17;;;4.67;;
1026;SDS011;502;48.746;9.214;2022-11-20T00:31:15;5.23;;;4.67;;
1026;SDS011;502;48.746;9.214;2022-11-20T00:34:00;6.27;;;4.80;;
1026;SDS011;502;48.746;9.214;2022-11-20T00:36:46;5.60;;;4.43;;
1026;SDS011;502;48.746;9.214;2022-11-20T00:39:32;6.70;;;4.77;;
1026;SDS011;502;48.746;9.214;2022-11-20T00:42:18;5.40;;;4.40;;
1026;SDS011;502;48.746;9.214;2022-11-20T00:45:04;6.77;;;4.50;;
1026;SDS011;502;48.746;9.214;2022-11-20T00:47:50;7.30;;;4.73;;
1026;SDS011;502;48.746;9.214;2022-11-20T00:50:36;6.10;;;5.10;;
1026;SDS011;502;48.746;9.214;2022-11-20T00:53:21;5.03;;;4.53;;
1026;SDS011;502;48.746;9.214;2022-11-20T00:56:10;5.50;;;4.20;;
1026;SDS011;502;48.746;9.214;2022-11-20T00:58:58;6.53;;;4.67;;
1026;SDS011;502;48.746;9.214;2022-11-20T01:01:44;5.47;;;4.30;;
1026;SDS011;502;48.746;9.214;2022-11-20T01:04:29;5.40;;;4.20;;
1026;SDS011;502;48.746;9.214;2022-11-20T01:07:15;4.47;;;3.73;;
1026;SDS011;502;48.746;9.214;2022-11-20T01:10:00;5.23;;;3.93;;
1026;SDS011;502;48.746;9.214;2022-11-20T01:12:47;5.93;;;4.53;;
1026;SDS011;502;48.746;9.214;2022-11-20T01:15:52;5.03;;;4.07;;
1026;SDS011;502;48.746;9.214;2022-11-20T01:18:38;4.17;;;3.63;;
1026;SDS011;502;48.746;9.214;2022-11-20T01:21:25;5.50;;;4.63;;
1026;SDS011;502;48.746;9.214;2022-11-20T01:24:13;5.30;;;3.60;;
1026;SDS011;502;48.746;9.214;2022-11-20T01:26:59;4.87;;;3.93;;
1026;SDS011;502;48.746;9.214;2022-11-20T01:29:46;5.37;;;3.90;;
1026;SDS011;502;48.746;9.214;2022-11-20T01:32:31;6.33;;;3.80;;
1026;SDS011;502;48.746;9.214;2022-11-20T01:35:16;6.20;;;3.93;;
1026;SDS011;502;48.746;9.214;2022-11-20T01:38:02;5.30;;;3.63;;
1026;SDS011;502;48.746;9.214;2022-11-20T01:40:53;5.03;;;4.20;;
1026;SDS011;502;48.746;9.214;2022-11-20T01:43:39;3.57;;;3.20;;
1026;SDS011;502;48.746;9.214;2022-11-20T01:46:25;4.53;;;3.47;;
1026;SDS011;502;48.746;9.214;2022-11-20T01:49:11;6.37;;;3.70;;
1026;SDS011;502;48.746;9.214;2022-11-20T01:52:01;4.03;;;3.30;;
1026;SDS011;502;48.746;9.214;2022-11-20T01:54:51;5.10;;;3.53;;
1026;SDS011;502;48.746;9.214;2022-11-20T01:57:38;4.10;;;3.37;;
1026;SDS011;502;48.746;9.214;2022-11-20T02:00:24;3.60;;;3.10;;
1026;SDS011;502;48.746;9.214;2022-11-20T02:03:11;3.53;;;3.10;;
1026;SDS011;502;48.746;9.214;2022-11-20T02:06:01;3.87;;;3.17;;
1026;SDS011;502;48.746;9.214;2022-11-20T02:08:50;3.43;;;3.13;;
1026;SDS011;502;48.746;9.214;2022-11-20T02:11:35;3.90;;;3.40;;
1026;SDS011;502;48.746;9.214;2022-11-20T02:14:21;4.17;;;3.47;;
1026;SDS011;502;48.746;9.214;2022-11-20T02:17:06;4.10;;;3.20;;
1026;SDS011;502;48.746;9.214;2022-11-20T02:19:52;5.73;;;3.40;;
1026;SDS011;502;48.746;9.214;2022-11-20T02:22:40;3.87;;;3.10;;
1026;SDS011;502;48.746;9.214;2022-11-20T02:25:32;3.90;;;3.07;;
1026;SDS011;502;48.746;9.214;2022-11-20T02:28:17;3.90;;;3.03;;
1026;SDS011;502;48.746;9.214;2022-11-20T02:31:03;3.53;;;2.83;;
1026;SDS011;502;48.746;9.214;2022-11-20T02:33:53;3.70;;;3.13;;
1026;SDS011;502;48.746;9.214;2022-11-20T02:36:40;3.83;;;3.43;;
1026;SDS011;502;48.746;9.214;2022-11-20T02:39:26;3.67;;;2.70;;
1026;SDS011;502;48.746;9.214;2022-11-20T02:42:14;3.70;;;3.30;;
1026;SDS011;502;48.746;9.214;2022-11-20T02:44:59;4.50;;;3.67;;
1026;SDS011;502;48.746;9.214;2022-11-20T02:47:44;3.63;;;3.30;;
1026;SDS011;502;48.746;9.214;2022-11-20T02:50:30;5.00;;;3.47;;
1026;SDS011;502;48.746;9.214;2022-11-20T02:53:15;4.03;;;3.30;;
1026;SDS011;502;48.746;9.214;2022-11-20T02:56:00;5.23;;;3.77;;
1026;SDS011;502;48.746;9.214;2022-11-20T02:58:47;5.40;;;3.70;;
1026;SDS011;502;48.746;9.214;2022-11-20T03:01:32;3.83;;;3.47;;
1026;SDS011;502;48.746;9.214;2022-11-20T03:04:17;3.97;;;3.30;;
1026;SDS011;502;48.746;9.214;2022-11-20T03:07:03;4.53;;;3.67;;
1026;SDS011;502;48.746;9.214;2022-11-20T03:09:48;5.20;;;3.73;;
1026;SDS011;502;48.746;9.214;2022-11-20T03:12:33;4.40;;;3.73;;
1026;SDS011;502;48.746;9.214;2022-11-20T03:15:20;5.00;;;3.90;;
1026;SDS011;502;48.746;9.214;2022-11-20T03:18:05;4.70;;;3.83;;
1026;SDS011;502;48.746;9.214;2022-11-20T03:20:56;5.60;;;4.47;;
1026;SDS011;502;48.746;9.214;2022-11-20T03:23:42;5.80;;;4.43;;
1026;SDS011;502;48.746;9.214;2022-11-20T03:26:27;5.30;;;3.90;;
1026;SDS011;502;48.746;9.214;2022-11-20T03:29:12;6.57;;;4.63;;
1026;SDS011;502;48.746;9.214;2022-11-20T03:31:59;5.13;;;4.40;;
1026;SDS011;502;48.746;9.214;2022-11-20T03:34:44;5.07;;;4.40;;
1026;SDS011;502;48.746;9.214;2022-11-20T03:37:30;5.90;;;4.30;;
1026;SDS011;502;48.746;9.214;2022-11-20T03:40:16;4.70;;;4.30;;
1026;SDS011;502;48.746;9.214;2022-11-20T03:43:02;4.77;;;4.03;;
1026;SDS011;502;48.746;9.214;2022-11-20T03:45:47;4.37;;;3.87;;
1026;SDS011;502;48.746;9.214;2022-11-20T03:48:34;4.90;;;4.40;;
1026;SDS011;502;48.746;9.214;2022-11-20T03:51:20;4.73;;;3.93;;
1026;SDS011;502;48.746;9.214;2022-11-20T03:54:07;4.50;;;3.70;;
1026;SDS011;502;48.746;9.214;2022-11-20T03:56:53;7.30;;;4.80;;
1026;SDS011;502;48.746;9.214;2022-11-20T03:59:38;4.50;;;3.73;;
1026;SDS011;502;48.746;9.214;2022-11-20T04:02:24;4.90;;;3.97;;
1026;SDS011;502;48.746;9.214;2022-11-20T04:05:10;5.40;;;4.63;;
1026;SDS011;502;48.746;9.214;2022-11-20T04:07:55;7.30;;;5.00;;
1026;SDS011;502;48.746;9.214;2022-11-20T04:10:41;5.17;;;4.20;;
1026;SDS011;502;48.746;9.214;2022-11-20T04:13:26;5.03;;;4.33;;
1026;SDS011;502;48.746;9.214;2022-11-20T04:16:12;5.10;;;3.80;;
1026;SDS011;502;48.746;9.214;2022-11-20T04:18:58;4.50;;;3.63;;
1026;SDS011;502;48.746;9.214;2022-11-20T04:21:46;5.03;;;4.27;;
1026;SDS011;502;48.746;9.214;2022-11-20T04:24:31;4.90;;;4.43;;
1026;SDS011;502;48.746;9.214;2022-11-20T04:27:17;4.93;;;4.40;;
1026;SDS011;502;48.746;9.214;2022-11-20T04:30:02;7.03;;;4.60;;
1026;SDS011;502;48.746;9.214;2022-11-20T04:32:48;4.60;;;4.10;;
1026;SDS011;502;48.746;9.214;2022-11-20T04:35:34;5.23;;;4.50;;
1026;SDS011;502;48.746;9.214;2022-11-20T04:38:21;4.73;;;4.20;;
1026;SDS011;502;48.746;9.214;2022-11-20T04:41:06;5.80;;;4.17;;
1026;SDS011;502;48.746;9.214;2022-11-20T04:43:53;6.60;;;4.00;;
1026;SDS011;502;48.746;9.214;2022-11-20T04:46:43;4.80;;;4.30;;
1026;SDS011;502;48.746;9.214;2022-11-20T04:49:28;5.27;;;4.40;;
1026;SDS011;502;48.746;9.214;2022-11-20T04:52:15;7.53;;;4.00;;
1026;SDS011;502;48.746;9.214;2022-11-20T04:55:01;6.47;;;4.63;;
1026;SDS011;502;48.746;9.214;2022-11-20T04:57:49;5.40;;;4.27;;
1026;SDS011;502;48.746;9.214;2022-11-20T05:00:35;5.23;;;3.87;;
1026;SDS011;502;48.746;9.214;2022-11-20T05:03:20;5.63;;;4.17;;
1026;SDS011;502;48.746;9.214;2022-11-20T05:06:06;5.27;;;3.97;;
1026;SDS011;502;48.746;9.214;2022-11-20T05:08:52;4.80;;;4.00;;
1026;SDS011;502;48.746;9.214;2022-11-20T05:11:38;4.93;;;4.43;;
1026;SDS011;502;48.746;9.214;2022-11-20T05:14:23;7.60;;;4.40;;
1026;SDS011;502;48.746;9.214;2022-11-20T05:17:09;4.97;;;4.00;;
1026;SDS011;502;48.746;9.214;2022-11-20T05:19:55;4.63;;;3.60;;
1026;SDS011;502;48.746;9.214;2022-11-20T05:22:41;4.37;;;3.57;;
1026;SDS011;502;48.746;9.214;2022-11-20T05:25:26;4.60;;;4.20;;
1026;SDS011;502;48.746;9.214;2022-11-20T05:28:13;5.40;;;4.40;;
1026;SDS011;502;48.746;9.214;2022-11-20T05:31:03;5.20;;;3.70;;
1026;SDS011;502;48.746;9.214;2022-11-20T05:33:49;5.27;;;4.20;;
1026;SDS011;502;48.746;9.214;2022-11-20T05:36:34;4.30;;;3.90;;
1026;SDS011;502;48.746;9.214;2022-11-20T05:39:20;3.87;;;3.17;;
1026;SDS011;502;48.746;9.214;2022-11-20T05:42:05;3.97;;;3.13;;
1026;SDS011;502;48.746;9.214;2022-11-20T05:45:10;4.20;;;3.40;;
1026;SDS011;502;48.746;9.214;2022-11-20T05:47:57;5.20;;;3.77;;
1026;SDS011;502;48.746;9.214;2022-11-20T05:50:42;4.13;;;3.00;;
1026;SDS011;502;48.746;9.214;2022-11-20T05:53:28;4.03;;;3.33;;
1026;SDS011;502;48.746;9.214;2022-11-20T05:56:14;4.23;;;3.83;;
1026;SDS011;502;48.746;9.214;2022-11-20T05:59:00;5.00;;;3.60;;
1026;SDS011;502;48.746;9.214;2022-11-20T06:01:47;4.07;;;3.50;;
1026;SDS011;502;48.746;9.214;2022-11-20T06:04:32;3.20;;;2.90;;
1026;SDS011;502;48.746;9.214;2022-11-20T06:07:18;5.70;;;3.60;;
1026;SDS011;502;48.746;9.214;2022-11-20T06:10:03;3.13;;;2.80;;
1026;SDS011;502;48.746;9.214;2022-11-20T06:12:49;4.33;;;3.53;;
1026;SDS011;502;48.746;9.214;2022-11-20T06:15:34;3.70;;;3.30;;
1026;SDS011;502;48.746;9.214;2022-11-20T06:18:21;5.07;;;3.80;;
1026;SDS011;502;48.746;9.214;2022-11-20T06:21:07;4.60;;;3.63;;
1026;SDS011;502;48.746;9.214;2022-11-20T06:23:54;3.50;;;3.20;;
1026;SDS011;502;48.746;9.214;2022-11-20T06:26:39;4.30;;;3.17;;
1026;SDS011;502;48.746;9.214;2022-11-20T06:29:24;4.17;;;3.47;;
1026;SDS011;502;48.746;9.214;2022-11-20T06:32:10;4.33;;;2.73;;
1026;SDS011;502;48.746;9.214;2022-11-20T06:34:56;4.37;;;3.47;;
1026;SDS011;502;48.746;9.214;2022-11-20T06:37:42;3.73;;;3.13;;
1026;SDS011;502;48.746;9.214;2022-11-20T06:40:27;3.70;;;3.23;;
1026;SDS011;502;48.746;9.214;2022-11-20T06:43:12;4.23;;;3.43;;
1026;SDS011;502;48.746;9.214;2022-11-20T06:45:58;4.20;;;3.03;;
1026;SDS011;502;48.746;9.214;2022-11-20T06:48:44;4.77;;;3.87;;
1026;SDS011;502;48.746;9.214;2022-11-20T06:51:31;4.47;;;3.33;;
1026;SDS011;502;48.746;9.214;2022-11-20T06:54:16;3.50;;;3.20;;
1026;SDS011;502;48.746;9.214;2022-11-20T06:57:02;3.93;;;3.10;;
1026;SDS011;502;48.746;9.214;2022-11-20T06:59:47;5.30;;;4.13;;
1026;SDS011;502;48.746;9.214;2022-11-20T07:02:32;7.00;;;3.90;;
1026;SDS011;502;48.746;9.214;2022-11-20T07:05:17;4.80;;;3.83;;
1026;SDS011;502;48.746;9.214;2022-11-20T07:08:04;6.30;;;3.47;;
1026;SDS011;502;48.746;9.214;2022-11-20T07:10:50;5.27;;;4.07;;
1026;SDS011;502;48.746;9.214;2022-11-20T07:13:38;4.40;;;3.50;;
1026;SDS011;502;48.746;9.214;2022-11-20T07:16:23;4.23;;;3.83;;
1026;SDS011;502;48.746;9.214;2022-11-20T07:19:08;4.47;;;3.23;;
1026;SDS011;502;48.746;9.214;2022-11-20T07:21:54;3.90;;;3.33;;
1026;SDS011;502;48.746;9.214;2022-11-20T07:24:41;5.30;;;3.70;;
1026;SDS011;502;48.746;9.214;2022-11-20T07:27:27;8.07;;;3.13;;
1026;SDS011;502;48.746;9.214;2022-11-20T07:32:58;4.63;;;3.83;;
1026;SDS011;502;48.746;9.214;2022-11-20T07:35:44;3.17;;;2.87;;
1026;SDS011;502;48.746;9.214;2022-11-20T07:38:30;3.63;;;3.03;;
1026;SDS011;502;48.746;9.214;2022-11-20T07:41:17;4.20;;;3.13;;
1026;SDS011;502;48.746;9.214;2022-11-20T07:44:02;4.83;;;3.73;;
1026;SDS011;502;48.746;9.214;2022-11-20T07:46:48;4.93;;;3.23;;
1026;SDS011;502;48.746;9.214;2022-11-20T07:49:33;4.40;;;3.33;;
1026;SDS011;502;48.746;9.214;2022-11-20T07:52:19;3.97;;;3.30;;
1026;SDS011;502;48.746;9.214;2022-11-20T07:55:05;4.67;;;3.30;;
1026;SDS011;502;48.746;9.214;2022-11-20T07:57:55;3.83;;;3.40;;
1026;SDS011;502;48.746;9.214;2022-11-20T08:00:40;4.90;;;3.80;;
1026;SDS011;502;48.746;9.214;2022-11-20T08:03:26;4.67;;;3.43;;
1026;SDS011;502;48.746;9.214;2022-11-20T08:06:11;4.10;;;3.70;;
1026;SDS011;502;48.746;9.214;2022-11-20T08:08:56;4.50;;;3.30;;
1026;SDS011;502;48.746;9.214;2022-11-20T08:11:41;3.87;;;2.80;;
1026;SDS011;502;48.746;9.214;2022-11-20T08:14:46;6.90;;;4.00;;
1026;SDS011;502;48.746;9.214;2022-11-20T08:17:31;6.10;;;4.20;;
1026;SDS011;502;48.746;9.214;2022-11-20T08:20:16;5.43;;;4.77;;
1026;SDS011;502;48.746;9.214;2022-11-20T08:23:02;5.27;;;4.20;;
1026;SDS011;502;48.746;9.214;2022-11-20T08:25:49;5.60;;;4.13;;
1026;SDS011;502;48.746;9.214;2022-11-20T08:28:35;3.87;;;3.40;;
1026;SDS011;502;48.746;9.214;2022-11-20T08:31:22;3.97;;;3.07;;
1026;SDS011;502;48.746;9.214;2022-11-20T08:34:07;4.83;;;3.57;;
1026;SDS011;502;48.746;9.214;2022-11-20T08:36:52;3.87;;;2.60;;
1026;SDS011;502;48.746;9.214;2022-11-20T08:39:38;3.97;;;3.57;;
1026;SDS011;502;48.746;9.214;2022-11-20T08:42:23;5.13;;;3.10;;
1026;SDS011;502;48.746;9.214;2022-11-20T08:45:08;4.10;;;3.37;;
1026;SDS011;502;48.746;9.214;2022-11-20T08:47:59;3.83;;;3.20;;
1026;SDS011;502;48.746;9.214;2022-11-20T08:50:44;6.73;;;4.30;;
1026;SDS011;502;48.746;9.214;2022-11-20T08:53:30;4.17;;;3.77;;
1026;SDS011;502;48.746;9.214;2022-11-20T08:56:15;5.30;;;3.97;;
1026;SDS011;502;48.746;9.214;2022-11-20T08:59:01;3.57;;;3.17;;
1026;SDS011;502;48.746;9.214;2022-11-20T09:01:47;4.13;;;2.33;;
1026;SDS011;502;48.746;9.214;2022-11-20T09:04:33;3.87;;;3.07;;
1026;SDS011;502;48.746;9.214;2022-11-20T09:07:19;4.17;;;3.40;;
1026;SDS011;502;48.746;9.214;2022-11-20T09:10:04;3.63;;;2.83;;
1026;SDS011;502;48.746;9.214;2022-11-20T09:12:51;4.80;;;4.03;;
1026;SDS011;502;48.746;9.214;2022-11-20T09:15:37;4.33;;;2.83;;
1026;SDS011;502;48.746;9.214;2022-11-20T09:18:22;3.53;;;2.60;;
1026;SDS011;502;48.746;9.214;2022-11-20T09:21:10;4.63;;;3.50;;
1026;SDS011;502;48.746;9.214;2022-11-20T09:24:07;2.90;;;2.20;;
1026;SDS011;502;48.746;9.214;2022-11-20T09:26:53;2.10;;;1.90;;
1026;SDS011;502;48.746;9.214;2022-11-20T09:29:38;2.20;;;2.00;;
1026;SDS011;502;48.746;9.214;2022-11-20T09:32:23;2.57;;;1.80;;
1026;SDS011;502;48.746;9.214;2022-11-20T09:35:09;1.77;;;1.37;;
1026;SDS011;502;48.746;9.214;2022-11-20T09:37:56;1.50;;;1.13;;
1026;SDS011;502;48.746;9.214;2022-11-20T09:40:44;2.40;;;1.63;;
1026;SDS011;502;48.746;9.214;2022-11-20T09:43:37;2.20;;;1.50;;
1026;SDS011;502;48.746;9.214;2022-11-20T09:46:33;1.40;;;1.20;;
1026;SDS011;502;48.746;9.214;2022-11-20T09:49:26;1.87;;;1.53;;
1026;SDS011;502;48.746;9.214;2022-11-20T09:52:16;3.37;;;1.40;;
1026;SDS011;502;48.746;9.214;2022-11-20T09:55:08;1.63;;;1.00;;
1026;SDS011;502;48.746;9.214;2022-11-20T09:57:56;2.17;;;1.33;;
1026;SDS011;502;48.746;9.214;2022-11-20T10:00:42;1.53;;;1.00;;
1026;SDS011;502;48.746;9.214;2022-11-20T10:03:30;1.50;;;0.97;;
1026;SDS011;502;48.746;9.214;2022-11-20T10:06:24;2.03;;;1.50;;
1026;SDS011;502;48.746;9.214;2022-11-20T10:09:16;1.30;;;1.10;;
1026;SDS011;502;48.746;9.214;2022-11-20T10:12:10;2.00;;;1.53;;
1026;SDS011;502;48.746;9.214;2022-11-20T10:15:09;2.93;;;2.03;;
1026;SDS011;502;48.746;9.214;2022-11-20T10:18:04;2.37;;;1.50;;
1026;SDS011;502;48.746;9.214;2022-11-20T10:20:58;2.27;;;1.60;;
1026;SDS011;502;48.746;9.214;2022-11-20T10:23:51;1.87;;;1.30;;
1026;SDS011;502;48.746;9.214;2022-11-20T10:26:48;1.93;;;1.33;;
1026;SDS011;502;48.746;9.214;2022-11-20T10:29:41;1.40;;;1.10;;
1026;SDS011;502;48.746;9.214;2022-11-20T10:32:30;2.43;;;0.93;;
1026;SDS011;502;48.746;9.214;2022-11-20T10:35:20;2.03;;;1.10;;
1026;SDS011;502;48.746;9.214;2022-11-20T10:38:09;2.20;;;1.80;;
1026;SDS011;502;48.746;9.214;2022-11-20T10:41:00;2.23;;;1.37;;
1026;SDS011;502;48.746;9.214;2022-11-20T10:44:02;1.57;;;1.23;;
1026;SDS011;502;48.746;9.214;2022-11-20T10:46:50;2.03;;;1.50;;
1026;SDS011;502;48.746;9.214;2022-11-20T10:49:35;1.40;;;1.00;;
1026;SDS011;502;48.746;9.214;2022-11-20T10:52:23;2.10;;;1.30;;
1026;SDS011;502;48.746;9.214;2022-11-20T10:55:16;1.50;;;0.90;;
1026;SDS011;502;48.746;9.214;2022-11-20T10:58:13;1.57;;;1.20;;
1026;SDS011;502;48.746;9.214;2022-11-20T11:01:03;1.47;;;1.30;;
1026;SDS011;502;48.746;9.214;2022-11-20T11:03:51;1.70;;;1.40;;
1026;SDS011;502;48.746;9.214;2022-11-20T11:06:37;3.27;;;2.30;;
1026;SDS011;502;48.746;9.214;2022-11-20T11:09:27;2.30;;;1.90;;
1026;SDS011;502;48.746;9.214;2022-11-20T11:12:17;1.80;;;1.40;;
1026;SDS011;502;48.746;9.214;2022-11-20T11:15:03;3.00;;;2.17;;
1026;SDS011;502;48.746;9.214;2022-11-20T11:17:49;2.30;;;1.77;;
1026;SDS011;502;48.746;9.214;2022-11-20T11:20:36;2.30;;;1.70;;
1026;SDS011;502;48.746;9.214;2022-11-20T11:23:26;1.80;;;1.40;;
1026;SDS011;502;48.746;9.214;2022-11-20T11:26:19;2.40;;;1.70;;
1026;SDS011;502;48.746;9.214;2022-11-20T11:29:15;2.60;;;1.90;;
1026;SDS011;502;48.746;9.214;2022-11-20T11:32:03;4.07;;;2.30;;
1026;SDS011;502;48.746;9.214;2022-11-20T11:34:59;2.17;;;1.97;;
1026;SDS011;502;48.746;9.214;2022-11-20T11:37:47;2.23;;;2.00;;
1026;SDS011;502;48.746;9.214;2022-11-20T11:40:34;2.63;;;2.20;;
1026;SDS011;502;48.746;9.214;2022-11-20T11:43:21;3.77;;;2.33;;
1026;SDS011;502;48.746;9.214;2022-11-20T11:46:27;2.53;;;2.20;;
1026;SDS011;502;48.746;9.214;2022-11-20T11:49:16;2.20;;;2.00;;
1026;SDS011;502;48.746;9.214;2022-11-20T11:52:04;4.73;;;2.03;;
1026;SDS011;502;48.746;9.214;2022-11-20T11:54:55;2.80;;;2.17;;
1026;SDS011;502;48.746;9.214;2022-11-20T11:57:43;2.30;;;1.80;;
1026;SDS011;502;48.746;9.214;2022-11-20T12:00:32;2.23;;;2.03;;
1026;SDS011;502;48.746;9.214;2022-11-20T12:03:21;2.97;;;2.30;;
1026;SDS011;502;48.746;9.214;2022-11-20T12:06:10;2.70;;;2.13;;
1026;SDS011;502;48.746;9.214;2022-11-20T12:08:59;2.07;;;1.87;;
1026;SDS011;502;48.746;9.214;2022-11-20T12:11:49;3.03;;;1.97;;
1026;SDS011;502;48.746;9.214;2022-11-20T12:14:37;3.30;;;2.20;;
1026;SDS011;502;48.746;9.214;2022-11-20T12:17:25;2.83;;;2.10;;
1026;SDS011;502;48.746;9.214;2022-11-20T12:20:11;3.47;;;1.90;;
1026;SDS011;502;48.746;9.214;2022-11-20T12:23:00;2.20;;;1.53;;
1026;SDS011;502;48.746;9.214;2022-11-20T12:25:48;1.97;;;1.77;;
1026;SDS011;502;48.746;9.214;2022-11-20T12:28:43;6.20;;;1.67;;
1026;SDS011;502;48.746;9.214;2022-11-20T12:35:05;2.67;;;1.80;;
1026;SDS011;502;48.746;9.214;2022-11-20T12:38:02;2.83;;;1.63;;
1026;SDS011;502;48.746;9.214;2022-11-20T12:40:59;2.27;;;1.57;;
1026;SDS011;502;48.746;9.214;2022-11-20T12:43:52;2.37;;;1.27;;
1026;SDS011;502;48.746;9.214;2022-11-20T12:47:07;2.13;;;1.50;;
1026;SDS011;502;48.746;9.214;2022-11-20T12:49:59;2.77;;;1.37;;
1026;SDS011;502;48.746;9.214;2022-11-20T12:52:48;1.63;;;1.40;;
1026;SDS011;502;48.746;9.214;2022-11-20T12:55:41;1.50;;;1.20;;
1026;SDS011;502;48.746;9.214;2022-11-20T12:58:33;1.50;;;1.30;;
1026;SDS011;502;48.746;9.214;2022-11-20T13:01:26;1.40;;;1.23;;
1026;SDS011;502;48.746;9.214;2022-11-20T13:04:34;2.70;;;1.20;;
1026;SDS011;502;48.746;9.214;2022-11-20T13:07:26;2.30;;;1.43;;
1026;SDS011;502;48.746;9.214;2022-11-20T13:10:14;3.07;;;1.63;;
1026;SDS011;502;48.746;9.214;2022-11-20T13:13:05;3.10;;;1.60;;
1026;SDS011;502;48.746;9.214;2022-11-20T13:15:58;2.33;;;1.40;;
1026;SDS011;502;48.746;9.214;2022-11-20T13:18:47;2.37;;;0.90;;
1026;SDS011;502;48.746;9.214;2022-11-20T13:21:36;1.83;;;1.20;;
1026;SDS011;502;48.746;9.214;2022-11-20T13:24:23;2.20;;;1.47;;
1026;SDS011;502;48.746;9.214;2022-11-20T13:27:18;2.53;;;1.40;;
1026;SDS011;502;48.746;9.214;2022-11-20T13:30:13;1.60;;;1.00;;
1026;SDS011;502;48.746;9.214;2022-11-20T13:33:02;1.50;;;1.10;;
1026;SDS011;502;48.746;9.214;2022-11-20T13:35:55;2.57;;;1.47;;
1026;SDS011;502;48.746;9.214;2022-11-20T13:38:42;3.20;;;1.43;;
1026;SDS011;502;48.746;9.214;2022-11-20T13:41:29;1.73;;;1.40;;
1026;SDS011;502;48.746;9.214;2022-11-20T13:44:22;2.30;;;1.60;;
1026;SDS011;502;48.746;9.214;2022-11-20T13:47:17;3.40;;;1.60;;
1026;SDS011;502;48.746;9.214;2022-11-20T13:50:08;2.10;;;1.30;;
1026;SDS011;502;48.746;9.214;2022-11-20T13:52:55;1.93;;;1.50;;
1026;SDS011;502;48.746;9.214;2022-11-20T13:55:47;2.33;;;1.57;;
1026;SDS011;502;48.746;9.214;2022-11-20T13:58:40;1.70;;;1.53;;
1026;SDS011;502;48.746;9.214;2022-11-20T14:01:32;2.00;;;1.60;;
1026;SDS011;502;48.746;9.214;2022-11-20T14:04:20;1.57;;;1.10;;
1026;SDS011;502;48.746;9.214;2022-11-20T14:07:11;1.40;;;1.00;;
1026;SDS011;502;48.746;9.214;2022-11-20T14:09:58;4.33;;;1.20;;
1026;SDS011;502;48.746;9.214;2022-11-20T14:12:43;2.07;;;1.47;;
1026;SDS011;502;48.746;9.214;2022-11-20T14:15:29;3.63;;;1.50;;
1026;SDS011;502;48.746;9.214;2022-11-20T14:18:19;2.70;;;1.40;;
1026;SDS011;502;48.746;9.214;2022-11-20T14:21:08;1.90;;;1.50;;
1026;SDS011;502;48.746;9.214;2022-11-20T14:24:02;2.23;;;1.90;;
1026;SDS011;502;48.746;9.214;2022-11-20T14:26:50;2.77;;;1.70;;
1026;SDS011;502;48.746;9.214;2022-11-20T14:29:36;3.37;;;1.80;;
1026;SDS011;502;48.746;9.214;2022-11-20T14:32:23;1.90;;;1.30;;
1026;SDS011;502;48.746;9.214;2022-11-20T14:35:13;4.23;;;1.50;;
1026;SDS011;502;48.746;9.214;2022-11-20T14:38:02;3.40;;;1.40;;
1026;SDS011;502;48.746;9.214;2022-11-20T14:40:48;2.60;;;1.67;;
1026;SDS011;502;48.746;9.214;2022-11-20T14:43:35;2.50;;;1.30;;
1026;SDS011;502;48.746;9.214;2022-11-20T14:46:21;3.63;;;1.80;;
1026;SDS011;502;48.746;9.214;2022-11-20T14:49:07;1.80;;;1.40;;
1026;SDS011;502;48.746;9.214;2022-11-20T14:51:58;3.57;;;1.97;;
1026;SDS011;502;48.746;9.214;2022-11-20T14:54:45;2.53;;;2.10;;
1026;SDS011;502;48.746;9.214;2022-11-20T14:57:31;2.40;;;2.00;;
1026;SDS011;502;48.746;9.214;2022-11-20T15:00:20;2.20;;;1.90;;
1026;SDS011;502;48.746;9.214;2022-11-20T15:03:13;2.20;;;1.80;;
1026;SDS011;502;48.746;9.214;2022-11-20T15:06:00;2.67;;;2.40;;
1026;SDS011;502;48.746;9.214;2022-11-20T15:08:50;3.13;;;2.20;;
1026;SDS011;502;48.746;9.214;2022-11-20T15:11:35;2.97;;;2.10;;
1026;SDS011;502;48.746;9.214;2022-11-20T15:14:21;2.50;;;1.90;;
1026;SDS011;502;48.746;9.214;2022-11-20T15:17:08;3.00;;;2.13;;
1026;SDS011;502;48.746;9.214;2022-11-20T15:19:54;4.27;;;2.43;;
1026;SDS011;502;48.746;9.214;2022-11-20T15:22:40;4.00;;;2.50;;
1026;SDS011;502;48.746;9.214;2022-11-20T15:25:25;2.90;;;2.60;;
1026;SDS011;502;48.746;9.214;2022-11-20T15:28:13;2.77;;;2.47;;
1026;SDS011;502;48.746;9.214;2022-11-20T15:31:02;2.50;;;1.70;;
1026;SDS011;502;48.746;9.214;2022-11-20T15:33:49;2.10;;;1.70;;
1026;SDS011;502;48.746;9.214;2022-11-20T15:36:35;2.23;;;1.80;;
1026;SDS011;502;48.746;9.214;2022-11-20T15:39:20;2.27;;;1.90;;
1026;SDS011;502;48.746;9.214;2022-11-20T15:42:05;2.63;;;1.83;;
1026;SDS011;502;48.746;9.214;2022-11-20T15:44:51;2.40;;;1.77;;
1026;SDS011;502;48.746;9.214;2022-11-20T15:47:36;1.80;;;1.43;;
1026;SDS011;502;48.746;9.214;2022-11-20T15:50:23;2.80;;;1.73;;
1026;SDS011;502;48.746;9.214;2022-11-20T15:53:11;2.63;;;1.80;;
1026;SDS011;502;48.746;9.214;2022-11-20T15:55:56;3.30;;;2.00;;
1026;SDS011;502;48.746;9.214;2022-11-20T15:58:41;2.80;;;2.00;;
1026;SDS011;502;48.746;9.214;2022-11-20T16:01:27;4.87;;;1.83;;
1026;SDS011;502;48.746;9.214;2022-11-20T16:04:13;2.73;;;2.10;;
1026;SDS011;502;48.746;9.214;2022-11-20T16:07:00;2.43;;;2.07;;
1026;SDS011;502;48.746;9.214;2022-11-20T16:09:45;2.93;;;2.43;;
1026;SDS011;502;48.746;9.214;2022-11-20T16:12:31;2.10;;;1.90;;
1026;SDS011;502;48.746;9.214;2022-11-20T16:15:33;2.83;;;2.13;;
1026;SDS011;502;48.746;9.214;2022-11-20T16:18:31;3.10;;;2.33;;
1026;SDS011;502;48.746;9.214;2022-11-20T16:21:23;6.00;;;4.50;;
1026;SDS011;502;48.746;9.214;2022-11-20T16:24:13;3.30;;;2.90;;
1026;SDS011;502;48.746;9.214;2022-11-20T16:26:59;2.53;;;2.23;;
1026;SDS011;502;48.746;9.214;2022-11-20T16:29:44;2.63;;;2.17;;
1026;SDS011;502;48.746;9.214;2022-11-20T16:32:30;4.23;;;2.30;;
1026;SDS011;502;48.746;9.214;2022-11-20T16:35:15;2.97;;;2.10;;
1026;SDS011;502;48.746;9.214;2022-11-20T16:38:01;3.30;;;3.00;;
1026;SDS011;502;48.746;9.214;2022-11-20T16:40:49;4.53;;;3.63;;
1026;SDS011;502;48.746;9.214;2022-11-20T16:43:34;5.50;;;4.13;;
1026;SDS011;502;48.746;9.214;2022-11-20T16:46:20;5.40;;;4.13;;
1026;SDS011;502;48.746;9.214;2022-11-20T16:49:10;4.73;;;3.93;;
1026;SDS011;502;48.746;9.214;2022-11-20T16:51:58;4.47;;;4.07;;
1026;SDS011;502;48.746;9.214;2022-11-20T16:54:43;6.97;;;4.23;;
1026;SDS011;502;48.746;9.214;2022-11-20T16:57:30;3.97;;;3.57;;
1026;SDS011;502;48.746;9.214;2022-11-20T17:00:16;4.27;;;3.37;;
1026;SDS011;502;48.746;9.214;2022-11-20T17:03:04;4.83;;;3.30;;
1026;SDS011;502;48.746;9.214;2022-11-20T17:05:50;3.40;;;3.10;;
1026;SDS011;502;48.746;9.214;2022-11-20T17:08:35;5.07;;;3.80;;
1026;SDS011;502;48.746;9.214;2022-11-20T17:11:21;3.60;;;3.30;;
1026;SDS011;502;48.746;9.214;2022-11-20T17:14:10;4.57;;;3.97;;
1026;SDS011;502;48.746;9.214;2022-11-20T17:16:56;4.70;;;3.60;;
1026;SDS011;502;48.746;9.214;2022-11-20T17:19:41;5.40;;;3.70;;
1026;SDS011;502;48.746;9.214;2022-11-20T17:22:26;5.67;;;4.20;;
1026;SDS011;502;48.746;9.214;2022-11-20T17:25:12;5.47;;;4.97;;
1026;SDS011;502;48.746;9.214;2022-11-20T17:27:57;6.00;;;4.60;;
1026;SDS011;502;48.746;9.214;2022-11-20T17:30:45;5.23;;;4.50;;
1026;SDS011;502;48.746;9.214;2022-11-20T17:33:31;5.80;;;4.80;;
1026;SDS011;502;48.746;9.214;2022-11-20T17:36:18;4.40;;;3.53;;
1026;SDS011;502;48.746;9.214;2022-11-20T17:39:04;3.67;;;3.37;;
1026;SDS011;502;48.746;9.214;2022-11-20T17:41:50;5.00;;;2.93;;
1026;SDS011;502;48.746;9.214;2022-11-20T17:44:50;3.53;;;2.80;;